Etusivu
METAR-TAF:

METAR-TAF

Lentoasemat :

Ateenan kansainvälinen lentoasema

Ateena, Kreikka

Leveyspiiri: 37-56N, Pituuspiiri: 023-56E, korkeus merenpinnasta: 94 m

Tämänhetkinen sää

Tämä raportti tehtiin 36 minuuttia sitten, kello 02.20 UTC
Tuuli 5 kn pohjoisen/luoteesta
Lämpötila 13°C
Kosteus 72%
Ilmanpaine 1017 hPa
Näkyvyys 10 km tai enemmän
Muutamia pilviä 3000 ft:n korkeudessa

METAR: LGAV 230220Z 33005KT 9999 FEW030 13/08 Q1017 NOSIG

Aika: 04:56 (02:56 UTC)

Sääennuste

Tämä raportti tehtiin 3 tuntia ja 56 minuuttia sitten, kello 23.00 UTC
Ennuste voimassa 23. päivästä klo 00 UTC - 23. päivään klo 24 UTC
Tuuli 5 kn eri suunnista
Näkyvyys 10 km tai enemmän
Muutamia pilviä 2500 ft:n korkeudessa
Todennäköisyys 30%
23. päivästä klo 01 UTC - 23. päivään klo 06 UTC
Näkyvyys: 5000 m
Hajonneita pilviä 600 ft:n korkeudessa
utua

TAF: LGAV 222300Z 2300/2324 VRB05KT 9999 FEW025 PROB30 2301/2306 5000 BR BKN006

Säähavainnot ja -ennusteet yli 4000 lentoasemalta (METAR- ja TAF-raportit).

Käytössä olevat sääasemat on merkitty karttaan keltaisilla ja punaisilla pisteillä.

Aseta hiiri pisteen päälle nähdäksesi sääaseman nimen.

Klikkaa sitten nähdäksesi säähavainnot ja -ennusteet.

Kartan vaihtaminen: klikkaa mustalla rastilla varustettuja vihreitä pisteitä, niin voit zoomata sisään; viivalla varustettua vihreää pistettä, niin voit zoomata ulos tai vihreitä nuolia, niin pääset viereisille kartoille.


METAR-TAF: